Westville Lake, Ohio
Current Conditions -  °F | °C
As of 8:16 PM on Monday 20 Oct 2014 (Local Time) from KCAK Reporting Station
Light Rain Light Rain  
Wind Chill: 52°   Ceiling: 2600
Heat Index: 52°   Visibility: 4mi
Dew Point: 48°   Wind: 6mph
Humidity: 88%   Direction: 230°SW
Pressure: 29.87"   Gusts: NA
Location:  40.915°N, 80.9865°W
Report Text: KCAK 210016Z 23005KT 4SM -RA BR BKN026 11/09 A2987 RMK AO2 RAB2354 P0001 $
Loading
Personal Weather Stations






























Interactive Weather Map New forecast layout! Learn more

10-Day Weather Forecast

Advertisements
Track Severe Weather on mobile